createdAt,value
2019-04-27T00:01:57.579Z,11.00
2019-04-27T00:04:48.640Z,11.00
2019-04-27T00:07:34.379Z,11.00
2019-04-27T00:10:13.747Z,11.00
2019-04-27T00:12:43.476Z,11.00
2019-04-27T00:15:14.835Z,11.10
2019-04-27T00:17:58.350Z,11.10
2019-04-27T00:20:31.005Z,11.20
2019-04-27T00:23:03.347Z,11.20
2019-04-27T00:25:33.233Z,11.10
2019-04-27T00:28:03.858Z,11.00
2019-04-27T00:30:35.617Z,11.00
2019-04-27T00:33:05.584Z,11.00
2019-04-27T00:35:36.889Z,10.90
2019-04-27T00:38:20.142Z,10.90
2019-04-27T00:40:57.466Z,10.80
2019-04-27T00:43:27.031Z,10.80
2019-04-27T00:45:56.575Z,10.90
2019-04-27T00:48:26.208Z,10.90
2019-04-27T00:50:55.751Z,10.90
2019-04-27T00:53:25.427Z,10.90
2019-04-27T00:55:56.791Z,10.90
2019-04-27T00:58:28.384Z,10.90
2019-04-27T01:01:08.644Z,10.80
2019-04-27T01:03:45.275Z,10.80
2019-04-27T01:06:15.329Z,10.80
2019-04-27T01:08:45.056Z,10.80
2019-04-27T01:11:14.892Z,10.90
2019-04-27T01:13:44.897Z,10.80
2019-04-27T01:16:17.432Z,10.80
2019-04-27T01:18:46.069Z,10.80
2019-04-27T01:21:15.626Z,10.70
2019-04-27T01:23:46.268Z,10.60
2019-04-27T01:26:32.815Z,10.50
2019-04-27T01:29:04.180Z,10.50
2019-04-27T01:31:33.896Z,10.50
2019-04-27T01:34:03.432Z,10.40
2019-04-27T01:36:33.104Z,10.40
2019-04-27T01:39:04.347Z,10.40
2019-04-27T01:41:34.063Z,10.40
2019-04-27T01:44:03.940Z,10.50
2019-04-27T01:46:33.554Z,10.50
2019-04-27T01:49:04.051Z,10.50
2019-04-27T01:51:33.719Z,10.50
2019-04-27T01:54:05.362Z,10.40
2019-04-27T01:56:35.146Z,10.40
2019-04-27T01:59:04.828Z,10.30
2019-04-27T02:01:42.332Z,10.30
2019-04-27T02:04:19.532Z,10.30
2019-04-27T02:06:53.712Z,10.30
2019-04-27T02:09:24.056Z,10.20
2019-04-27T02:11:53.711Z,10.20
2019-04-27T02:14:23.243Z,10.10
2019-04-27T02:16:53.032Z,10.20
2019-04-27T02:19:22.564Z,10.10
2019-04-27T02:21:52.284Z,10.10
2019-04-27T02:24:21.824Z,10.10
2019-04-27T02:26:51.636Z,10.00
2019-04-27T02:29:26.043Z,10.00
2019-04-27T02:32:10.484Z,10.00
2019-04-27T02:34:57.223Z,10.00
2019-04-27T02:37:26.872Z,10.00
2019-04-27T02:39:56.399Z,9.90
2019-04-27T02:42:29.625Z,9.90
2019-04-27T02:44:59.832Z,9.80
2019-04-27T02:47:29.632Z,9.90
2019-04-27T02:50:00.622Z,9.80
2019-04-27T02:52:32.191Z,9.80
2019-04-27T02:55:01.723Z,9.80
2019-04-27T02:57:31.258Z,9.80
2019-04-27T03:00:00.897Z,9.80
2019-04-27T03:02:34.766Z,9.80
2019-04-27T03:05:19.554Z,9.80
2019-04-27T03:07:50.340Z,9.80
2019-04-27T03:10:20.007Z,9.80
2019-04-27T03:12:51.367Z,9.80
2019-04-27T03:15:23.497Z,9.90
2019-04-27T03:18:10.505Z,9.90
2019-04-27T03:20:41.668Z,9.90
2019-04-27T03:23:11.775Z,10.00
2019-04-27T03:25:43.072Z,10.00
2019-04-27T03:28:13.839Z,9.90
2019-04-27T03:30:44.049Z,9.90
2019-04-27T03:33:13.745Z,9.80
2019-04-27T03:35:43.932Z,9.80
2019-04-27T03:38:14.138Z,9.80
2019-04-27T03:40:43.662Z,9.80
2019-04-27T03:43:20.019Z,9.70
2019-04-27T03:45:51.765Z,9.70
2019-04-27T03:48:20.683Z,9.70
2019-04-27T03:50:51.844Z,9.60
2019-04-27T03:53:23.355Z,9.60
2019-04-27T03:55:54.670Z,9.60
2019-04-27T03:58:40.820Z,9.70
2019-04-27T04:01:10.709Z,9.70
2019-04-27T04:03:40.421Z,9.80
2019-04-27T04:06:10.804Z,9.80
2019-04-27T04:08:40.582Z,9.80
2019-04-27T04:11:30.392Z,9.90
2019-04-27T04:14:01.707Z,10.00
2019-04-27T04:16:32.879Z,10.00
2019-04-27T04:19:04.064Z,9.90
2019-04-27T04:21:33.590Z,9.90
2019-04-27T04:24:03.127Z,9.80
2019-04-27T04:26:33.249Z,9.80
2019-04-27T04:29:03.041Z,9.80
2019-04-27T04:31:33.638Z,9.80
2019-04-27T04:34:03.589Z,9.80
2019-04-27T04:36:33.408Z,9.80
2019-04-27T04:39:03.945Z,9.80
2019-04-27T04:41:47.201Z,9.90
2019-04-27T04:44:35.151Z,9.90
2019-04-27T04:47:07.126Z,9.90
2019-04-27T04:49:36.734Z,9.90
2019-04-27T04:52:06.479Z,10.00
2019-04-27T04:54:36.676Z,10.20
2019-04-27T04:57:06.284Z,10.70
2019-04-27T04:59:35.817Z,11.30
2019-04-27T05:02:05.532Z,12.00
2019-04-27T05:04:35.231Z,12.70
2019-04-27T05:07:04.773Z,13.20
2019-04-27T05:09:34.447Z,13.50
2019-04-27T05:12:04.170Z,13.80
2019-04-27T05:14:33.701Z,14.40
2019-04-27T05:17:03.387Z,15.00
2019-04-27T05:19:32.927Z,15.70
2019-04-27T05:22:02.466Z,16.40
2019-04-27T05:24:32.012Z,17.10
2019-04-27T05:27:01.716Z,17.80
2019-04-27T05:29:31.412Z,18.50
2019-04-27T05:32:01.060Z,19.00
2019-04-27T05:34:30.609Z,19.60
2019-04-27T05:37:01.118Z,20.20
2019-04-27T05:39:31.004Z,20.80
2019-04-27T05:42:00.824Z,21.40
2019-04-27T05:44:45.755Z,22.10
2019-04-27T05:47:18.964Z,22.90
2019-04-27T05:49:49.100Z,23.80
2019-04-27T05:52:29.322Z,24.50
2019-04-27T05:54:59.280Z,25.40
2019-04-27T05:57:31.309Z,26.10
2019-04-27T06:00:02.053Z,26.60
2019-04-27T06:02:32.059Z,26.90
2019-04-27T06:05:01.597Z,27.30
2019-04-27T06:07:31.271Z,27.90
2019-04-27T06:10:00.834Z,28.40
2019-04-27T06:12:30.467Z,29.00
2019-04-27T06:15:00.285Z,29.40
2019-04-27T06:17:30.251Z,29.90
2019-04-27T06:20:00.021Z,30.30
2019-04-27T06:22:29.551Z,30.60
2019-04-27T06:25:00.071Z,30.70
2019-04-27T06:27:30.928Z,31.20
2019-04-27T06:30:00.809Z,31.70
2019-04-27T06:32:30.782Z,32.30
2019-04-27T06:35:00.540Z,32.80
2019-04-27T06:37:30.272Z,33.00
2019-04-27T06:40:00.013Z,33.30
2019-04-27T06:42:30.006Z,33.80
2019-04-27T06:45:00.028Z,34.20
2019-04-27T06:47:30.011Z,34.50
2019-04-27T06:49:59.481Z,34.80
2019-04-27T06:52:29.372Z,35.10
2019-04-27T06:55:00.621Z,35.30
2019-04-27T06:57:30.451Z,35.90
2019-04-27T06:59:59.912Z,36.50
2019-04-27T07:02:29.477Z,36.90
2019-04-27T07:04:59.298Z,37.40
2019-04-27T07:07:29.588Z,37.90
2019-04-27T07:09:59.451Z,38.20
2019-04-27T07:12:29.102Z,38.30
2019-04-27T07:14:59.248Z,38.20
2019-04-27T07:17:29.361Z,38.30
2019-04-27T07:19:59.606Z,38.30
2019-04-27T07:22:30.006Z,38.40
2019-04-27T07:24:59.978Z,38.20
2019-04-27T07:27:29.519Z,38.10
2019-04-27T07:30:01.508Z,38.30
2019-04-27T07:32:30.351Z,38.60
2019-04-27T07:35:00.163Z,38.30
2019-04-27T07:37:29.832Z,37.50
2019-04-27T07:39:59.639Z,37.60
2019-04-27T07:42:30.239Z,38.00
2019-04-27T07:45:09.368Z,37.90
2019-04-27T07:47:41.191Z,37.00
2019-04-27T07:50:10.941Z,36.70
2019-04-27T07:52:40.637Z,36.90
2019-04-27T07:55:10.569Z,36.80
2019-04-27T07:57:40.292Z,35.00
2019-04-27T08:00:11.500Z,32.50
2019-04-27T08:02:41.034Z,30.10
2019-04-27T08:05:10.634Z,27.60
2019-04-27T08:07:40.259Z,25.80
2019-04-27T08:10:10.241Z,24.70
2019-04-27T08:12:39.836Z,23.80
2019-04-27T08:15:09.438Z,23.10
2019-04-27T08:17:42.596Z,22.50
2019-04-27T08:20:11.443Z,22.10
2019-04-27T08:22:41.080Z,21.70
2019-04-27T08:25:10.851Z,21.40
2019-04-27T08:27:51.107Z,21.10
2019-04-27T08:30:25.552Z,20.90
2019-04-27T08:32:56.933Z,20.70
2019-04-27T08:35:26.641Z,20.40
2019-04-27T08:37:56.347Z,20.20
2019-04-27T08:40:25.952Z,20.00
2019-04-27T08:42:55.777Z,19.60
2019-04-27T08:45:25.492Z,19.30
2019-04-27T08:47:55.287Z,19.00
2019-04-27T08:50:24.824Z,18.70
2019-04-27T08:52:54.623Z,18.40
2019-04-27T08:55:24.314Z,18.40
2019-04-27T08:57:54.018Z,18.40
2019-04-27T09:00:23.547Z,18.30
2019-04-27T09:02:53.076Z,18.20
2019-04-27T09:05:25.738Z,18.10
2019-04-27T09:07:59.445Z,18.20
2019-04-27T09:10:46.445Z,18.20
2019-04-27T09:13:19.499Z,18.20
2019-04-27T09:16:07.256Z,18.10
2019-04-27T09:18:36.715Z,18.00
2019-04-27T09:21:06.257Z,18.00
2019-04-27T09:23:35.779Z,18.10
2019-04-27T09:26:05.314Z,18.30
2019-04-27T09:28:34.977Z,18.70
2019-04-27T09:31:05.187Z,18.90
2019-04-27T09:33:34.719Z,19.20
2019-04-27T09:36:06.020Z,19.60
2019-04-27T09:38:35.932Z,19.90
2019-04-27T09:41:07.223Z,20.40
2019-04-27T09:43:37.508Z,20.90
2019-04-27T09:46:07.408Z,21.30
2019-04-27T09:48:37.199Z,21.70
2019-04-27T09:51:06.980Z,21.80
2019-04-27T09:53:36.784Z,21.80
2019-04-27T09:56:06.516Z,21.90
2019-04-27T09:58:36.668Z,22.10
2019-04-27T10:01:06.700Z,22.50
2019-04-27T10:03:36.552Z,22.90
2019-04-27T10:06:06.383Z,22.60
2019-04-27T10:08:36.681Z,22.00
2019-04-27T10:11:06.464Z,21.90
2019-04-27T10:13:37.024Z,21.70
2019-04-27T10:16:06.819Z,21.60
2019-04-27T10:18:36.801Z,21.60
2019-04-27T10:21:06.515Z,21.20
2019-04-27T10:23:36.521Z,21.40
2019-04-27T10:26:07.272Z,21.60
2019-04-27T10:28:37.329Z,21.70
2019-04-27T10:31:07.256Z,21.60
2019-04-27T10:33:36.779Z,21.00
2019-04-27T10:36:08.441Z,20.60
2019-04-27T10:38:39.690Z,20.60
2019-04-27T10:41:09.461Z,20.30
2019-04-27T10:43:39.066Z,20.10
2019-04-27T10:46:08.611Z,20.20
2019-04-27T10:48:38.083Z,20.50
2019-04-27T10:51:07.618Z,20.70
2019-04-27T10:53:38.895Z,21.00
2019-04-27T10:56:08.362Z,21.30
2019-04-27T10:58:38.268Z,21.30
2019-04-27T11:01:08.952Z,20.90
2019-04-27T11:03:57.477Z,20.80
2019-04-27T11:06:29.118Z,20.80
2019-04-27T11:08:58.904Z,21.00
2019-04-27T11:11:28.600Z,21.00
2019-04-27T11:14:00.856Z,21.50
2019-04-27T11:16:29.584Z,21.80
2019-04-27T11:18:59.224Z,21.90
2019-04-27T11:21:28.748Z,21.60
2019-04-27T11:23:58.298Z,21.20
2019-04-27T11:26:27.815Z,21.40
2019-04-27T11:28:57.521Z,21.40
2019-04-27T11:31:27.234Z,21.50
2019-04-27T11:33:57.509Z,21.70
2019-04-27T11:36:28.801Z,21.90
2019-04-27T11:39:06.088Z,21.90
2019-04-27T11:41:35.612Z,21.90
2019-04-27T11:44:05.143Z,22.00
2019-04-27T11:46:34.768Z,22.00
2019-04-27T11:49:04.385Z,22.10
2019-04-27T11:51:33.901Z,22.00
2019-04-27T11:54:03.503Z,22.10
2019-04-27T11:56:33.195Z,21.70
2019-04-27T11:59:02.839Z,21.30
2019-04-27T12:01:32.554Z,21.20
2019-04-27T12:04:02.312Z,21.30
2019-04-27T12:06:32.132Z,21.30
2019-04-27T12:09:01.786Z,21.30
2019-04-27T12:11:31.591Z,21.20
2019-04-27T12:14:01.200Z,21.30
2019-04-27T12:16:30.655Z,21.30
2019-04-27T12:19:00.389Z,21.40
2019-04-27T12:21:29.909Z,21.40
2019-04-27T12:23:59.755Z,21.40
2019-04-27T12:26:34.003Z,21.50
2019-04-27T12:29:06.247Z,21.70
2019-04-27T12:31:37.764Z,21.90
2019-04-27T12:34:07.386Z,22.00
2019-04-27T12:36:37.075Z,22.20
2019-04-27T12:39:11.964Z,22.40
2019-04-27T12:41:41.615Z,22.80
2019-04-27T12:44:11.327Z,22.70
2019-04-27T12:46:41.019Z,22.60
2019-04-27T12:49:10.824Z,22.40
2019-04-27T12:51:40.442Z,22.20
2019-04-27T12:54:17.425Z,21.70
2019-04-27T12:56:51.376Z,21.50
2019-04-27T12:59:39.268Z,21.40
2019-04-27T13:02:09.169Z,21.30
2019-04-27T13:04:39.226Z,21.20
2019-04-27T13:07:09.135Z,20.90
2019-04-27T13:09:38.629Z,20.40
2019-04-27T13:12:08.244Z,19.90
2019-04-27T13:14:37.711Z,19.50
2019-04-27T13:17:07.723Z,19.30
2019-04-27T13:19:38.691Z,19.20
2019-04-27T13:22:08.460Z,19.20
2019-04-27T13:24:38.062Z,19.40
2019-04-27T13:27:07.601Z,19.90
2019-04-27T13:29:37.296Z,20.30
2019-04-27T13:32:06.815Z,20.70
2019-04-27T13:34:38.291Z,20.90
2019-04-27T13:37:26.317Z,20.80
2019-04-27T13:40:06.079Z,20.90
2019-04-27T13:42:29.339Z,21.10
2019-04-27T13:45:00.691Z,21.10
2019-04-27T13:47:37.884Z,21.00
2019-04-27T13:50:12.190Z,21.00
2019-04-27T13:52:41.732Z,20.90
2019-04-27T13:55:11.331Z,20.60
2019-04-27T13:57:50.107Z,20.50
2019-04-27T14:00:13.723Z,20.50
2019-04-27T14:02:44.125Z,20.10
2019-04-27T14:05:14.032Z,19.60
2019-04-27T14:07:43.575Z,19.20
2019-04-27T14:10:13.264Z,19.40
2019-04-27T14:12:42.802Z,19.40
2019-04-27T14:15:12.400Z,19.60
2019-04-27T14:17:41.932Z,19.80
2019-04-27T14:20:11.880Z,20.00
2019-04-27T14:22:41.583Z,19.70
2019-04-27T14:25:11.407Z,19.60
2019-04-27T14:27:41.598Z,19.50
2019-04-27T14:30:13.367Z,19.40
2019-04-27T14:32:42.891Z,19.10
2019-04-27T14:35:12.847Z,18.80
2019-04-27T14:37:42.383Z,18.70
2019-04-27T14:40:12.347Z,18.50
2019-04-27T14:42:41.886Z,18.20
2019-04-27T14:45:11.575Z,17.70
2019-04-27T14:47:41.113Z,17.40
2019-04-27T14:50:11.140Z,17.00
2019-04-27T14:52:40.939Z,16.50
2019-04-27T14:55:10.795Z,16.50
2019-04-27T14:57:40.767Z,16.70
2019-04-27T15:00:12.380Z,16.70
2019-04-27T15:02:41.924Z,16.70
2019-04-27T15:05:11.453Z,16.70
2019-04-27T15:07:47.016Z,16.70
2019-04-27T15:10:16.939Z,16.50
2019-04-27T15:12:46.843Z,16.40
2019-04-27T15:15:16.454Z,16.40
2019-04-27T15:17:45.979Z,16.30
2019-04-27T15:20:27.205Z,16.20
2019-04-27T15:22:56.851Z,16.10
2019-04-27T15:25:26.259Z,15.70
2019-04-27T15:28:01.394Z,15.50
2019-04-27T15:30:39.579Z,15.40
2019-04-27T15:33:25.157Z,15.20
2019-04-27T15:36:14.547Z,15.10
2019-04-27T15:38:51.332Z,14.90
2019-04-27T15:41:24.445Z,14.90
2019-04-27T15:43:59.624Z,14.80
2019-04-27T15:46:29.394Z,14.60
2019-04-27T15:48:58.928Z,14.40
2019-04-27T15:51:28.793Z,14.30
2019-04-27T15:53:58.779Z,14.10
2019-04-27T15:56:30.514Z,14.10
2019-04-27T15:59:01.029Z,13.90
2019-04-27T16:01:35.927Z,13.90
2019-04-27T16:04:02.507Z,13.70
2019-04-27T16:06:33.395Z,13.60
2019-04-27T16:09:04.727Z,13.60
2019-04-27T16:11:34.460Z,13.60
2019-04-27T16:14:06.738Z,13.60
2019-04-27T16:16:35.787Z,13.60
2019-04-27T16:19:10.198Z,13.40
2019-04-27T16:21:39.831Z,13.30
2019-04-27T16:24:08.528Z,13.50
2019-04-27T16:26:38.758Z,13.50
2019-04-27T16:29:09.843Z,13.60
2019-04-27T16:31:39.382Z,13.70
2019-04-27T16:34:08.984Z,13.80
2019-04-27T16:36:43.525Z,13.80
2019-04-27T16:39:10.185Z,13.90
2019-04-27T16:41:41.989Z,13.90
2019-04-27T16:44:11.319Z,13.90
2019-04-27T16:46:43.062Z,14.00
2019-04-27T16:49:14.020Z,13.90
2019-04-27T16:51:43.743Z,13.90
2019-04-27T16:54:17.699Z,13.60
2019-04-27T16:56:45.592Z,13.00
2019-04-27T16:59:36.609Z,12.70
2019-04-27T17:01:47.907Z,12.30
2019-04-27T17:04:17.363Z,11.90
2019-04-27T17:06:49.320Z,11.50
2019-04-27T17:09:18.966Z,11.30
2019-04-27T17:12:41.808Z,11.20
2019-04-27T17:14:38.709Z,11.00
2019-04-27T17:17:11.943Z,11.00
2019-04-27T17:19:43.964Z,10.90
2019-04-27T17:22:14.617Z,10.80
2019-04-27T17:24:47.371Z,10.70
2019-04-27T17:27:22.807Z,10.80
2019-04-27T17:29:57.475Z,10.70
2019-04-27T17:32:34.592Z,10.50
2019-04-27T17:35:08.751Z,10.40
2019-04-27T17:37:38.329Z,10.40
2019-04-27T17:40:09.501Z,10.40
2019-04-27T17:42:39.308Z,10.40
2019-04-27T17:45:09.311Z,10.30
2019-04-27T17:47:39.229Z,10.20
2019-04-27T17:50:09.363Z,10.20
2019-04-27T17:52:39.818Z,10.10
2019-04-27T17:55:09.785Z,10.10
2019-04-27T17:57:39.317Z,10.10
2019-04-27T18:00:10.515Z,10.10
2019-04-27T18:02:42.407Z,10.10
2019-04-27T18:05:13.708Z,10.00
2019-04-27T18:07:44.362Z,10.00
2019-04-27T18:10:22.819Z,10.10
2019-04-27T18:12:48.658Z,10.00
2019-04-27T18:15:16.867Z,10.00
2019-04-27T18:17:51.884Z,9.90
2019-04-27T18:20:29.427Z,9.90
2019-04-27T18:23:15.127Z,9.80
2019-04-27T18:25:43.654Z,9.80
2019-04-27T18:28:16.165Z,9.80
2019-04-27T18:30:49.106Z,9.80
2019-04-27T18:33:19.075Z,9.90
2019-04-27T18:35:49.059Z,9.90
2019-04-27T18:38:18.971Z,9.90
2019-04-27T18:40:48.785Z,9.90
2019-04-27T18:43:18.765Z,9.80
2019-04-27T18:45:48.714Z,9.70
2019-04-27T18:48:22.785Z,9.80
2019-04-27T18:51:09.016Z,9.80
2019-04-27T18:53:38.566Z,9.70
2019-04-27T18:56:20.820Z,9.70
2019-04-27T18:58:50.538Z,9.70
2019-04-27T19:01:20.345Z,9.60
2019-04-27T19:03:50.072Z,9.60
2019-04-27T19:06:19.596Z,9.70
2019-04-27T19:08:49.380Z,9.80
2019-04-27T19:11:19.008Z,9.80
2019-04-27T19:13:48.934Z,9.80
2019-04-27T19:16:18.781Z,9.80
2019-04-27T19:18:48.498Z,9.80
2019-04-27T19:21:20.012Z,9.80
2019-04-27T19:23:49.421Z,9.80
2019-04-27T19:26:23.596Z,9.80
2019-04-27T19:28:54.767Z,9.70
2019-04-27T19:31:29.171Z,9.70
2019-04-27T19:33:58.855Z,9.70
2019-04-27T19:36:30.419Z,9.70
2019-04-27T19:38:59.621Z,9.70
2019-04-27T19:41:29.140Z,9.60
2019-04-27T19:43:59.850Z,9.60
2019-04-27T19:46:30.509Z,9.60
2019-04-27T19:49:00.711Z,9.60
2019-04-27T19:51:30.553Z,9.70
2019-04-27T19:54:00.239Z,9.70
2019-04-27T19:56:29.785Z,9.80
2019-04-27T19:59:01.250Z,9.70
2019-04-27T20:01:40.053Z,9.80
2019-04-27T20:04:17.351Z,9.90
2019-04-27T20:06:48.499Z,9.90
2019-04-27T20:09:19.835Z,9.90
2019-04-27T20:11:49.375Z,9.80
2019-04-27T20:14:20.890Z,9.80
2019-04-27T20:16:51.969Z,9.80
2019-04-27T20:19:21.703Z,9.80
2019-04-27T20:21:51.413Z,9.80
2019-04-27T20:24:22.726Z,9.80
2019-04-27T20:26:52.155Z,9.80
2019-04-27T20:29:21.858Z,9.80
2019-04-27T20:31:51.388Z,9.80
2019-04-27T20:34:22.756Z,9.80
2019-04-27T20:36:52.882Z,9.80
2019-04-27T20:39:22.776Z,9.70
2019-04-27T20:41:52.575Z,9.80
2019-04-27T20:44:22.288Z,9.80
2019-04-27T20:46:51.752Z,9.80
2019-04-27T20:49:21.279Z,9.80
2019-04-27T20:52:01.355Z,9.80
2019-04-27T20:54:32.598Z,9.80
2019-04-27T20:57:02.112Z,9.80
2019-04-27T20:59:31.939Z,9.90
2019-04-27T21:02:19.580Z,9.90
2019-04-27T21:04:50.893Z,9.80
2019-04-27T21:07:22.331Z,9.70
2019-04-27T21:09:51.864Z,9.80
2019-04-27T21:12:22.596Z,9.80
2019-04-27T21:14:52.203Z,9.90
2019-04-27T21:17:21.875Z,9.90
2019-04-27T21:19:51.625Z,10.00
2019-04-27T21:22:21.411Z,10.00
2019-04-27T21:24:51.531Z,9.90
2019-04-27T21:27:21.658Z,9.80
2019-04-27T21:29:51.590Z,9.80
2019-04-27T21:32:22.608Z,9.70
2019-04-27T21:34:52.790Z,9.60
2019-04-27T21:37:22.624Z,9.60
2019-04-27T21:39:53.910Z,9.50
2019-04-27T21:42:23.436Z,9.50
2019-04-27T21:44:53.089Z,9.50
2019-04-27T21:47:22.677Z,9.60
2019-04-27T21:49:52.279Z,9.60
2019-04-27T21:52:23.448Z,9.70
2019-04-27T21:54:53.845Z,9.80
2019-04-27T21:57:23.379Z,9.80
2019-04-27T21:59:53.015Z,9.80
2019-04-27T22:02:22.941Z,9.80
2019-04-27T22:04:52.839Z,9.80
2019-04-27T22:07:22.355Z,9.80
2019-04-27T22:09:51.895Z,9.70
2019-04-27T22:12:21.433Z,9.70
2019-04-27T22:14:52.997Z,9.70
2019-04-27T22:17:22.347Z,9.60
2019-04-27T22:19:53.504Z,9.60
2019-04-27T22:22:27.611Z,9.50
2019-04-27T22:24:58.771Z,9.50
2019-04-27T22:27:28.228Z,9.40
2019-04-27T22:29:58.034Z,9.40
2019-04-27T22:32:27.553Z,9.40
2019-04-27T22:34:57.496Z,9.40
2019-04-27T22:37:27.087Z,9.50
2019-04-27T22:43:01.511Z,9.50
2019-04-27T22:45:32.849Z,9.50
2019-04-27T22:48:02.481Z,9.50
2019-04-27T22:50:32.095Z,9.50
2019-04-27T22:53:01.791Z,9.50
2019-04-27T22:55:31.431Z,9.50
2019-04-27T22:58:08.694Z,9.50
2019-04-27T23:00:46.046Z,9.50
2019-04-27T23:03:17.482Z,9.50
2019-04-27T23:05:47.438Z,9.50
2019-04-27T23:08:17.163Z,9.50
2019-04-27T23:10:46.858Z,9.50
2019-04-27T23:13:16.544Z,9.40
2019-04-27T23:15:47.805Z,9.50
2019-04-27T23:18:17.431Z,9.50
2019-04-27T23:20:46.967Z,9.40
2019-04-27T23:23:16.501Z,9.50
2019-04-27T23:25:46.224Z,9.50
2019-04-27T23:28:15.848Z,9.50
2019-04-27T23:30:47.100Z,9.50
2019-04-27T23:33:16.631Z,9.50
2019-04-27T23:35:46.248Z,9.40
2019-04-27T23:38:17.967Z,9.30
2019-04-27T23:40:47.157Z,9.20
2019-04-27T23:43:16.726Z,9.20
2019-04-27T23:45:46.367Z,9.20
2019-04-27T23:48:16.163Z,9.30
2019-04-27T23:50:47.532Z,9.20
2019-04-27T23:53:18.641Z,9.10
2019-04-27T23:55:48.163Z,9.10
2019-04-27T23:58:17.708Z,9.10
